createdAt,value
2019-03-22T00:02:18.181Z,102300.16
2019-03-22T00:05:05.204Z,102290.98
2019-03-22T00:07:52.684Z,102292.31
2019-03-22T00:13:45.557Z,102284.84
2019-03-22T00:19:39.758Z,102289.11
2019-03-22T00:22:26.972Z,102292.59
2019-03-22T00:25:14.119Z,102292.91
2019-03-22T00:28:00.939Z,102284.61
2019-03-22T00:30:48.038Z,102289.09
2019-03-22T00:43:01.909Z,102283.20
2019-03-22T00:45:49.329Z,102274.88
2019-03-22T00:51:42.383Z,102271.02
2019-03-22T00:54:32.156Z,102269.69
2019-03-22T01:00:26.534Z,102278.45
2019-03-22T01:03:14.264Z,102276.69
2019-03-22T01:06:02.130Z,102281.95
2019-03-22T01:08:49.358Z,102290.27
2019-03-22T01:11:36.675Z,102281.06
2019-03-22T01:14:24.500Z,102287.20
2019-03-22T01:17:12.331Z,102288.08
2019-03-22T01:20:13.603Z,102289.39
2019-03-22T01:23:02.001Z,102288.08
2019-03-22T01:28:57.210Z,102289.86
2019-03-22T01:31:44.275Z,102286.37
2019-03-22T01:34:31.470Z,102282.88
2019-03-22T01:37:18.438Z,102281.70
2019-03-22T01:40:08.803Z,102285.08
2019-03-22T01:42:55.609Z,102285.39
2019-03-22T01:45:42.369Z,102286.63
2019-03-22T01:48:29.916Z,102279.27
2019-03-22T01:51:17.333Z,102284.13
2019-03-22T01:54:04.051Z,102283.98
2019-03-22T01:56:51.600Z,102283.64
2019-03-22T01:59:38.384Z,102281.92
2019-03-22T02:02:25.993Z,102288.48
2019-03-22T02:05:13.930Z,102285.47
2019-03-22T02:08:00.751Z,102285.48
2019-03-22T02:13:54.858Z,102281.57
2019-03-22T02:16:41.683Z,102283.85
2019-03-22T02:19:29.388Z,102277.97
2019-03-22T02:22:16.401Z,102285.47
2019-03-22T02:28:09.260Z,102278.97
2019-03-22T02:30:56.750Z,102280.31
2019-03-22T02:33:43.926Z,102266.31
2019-03-22T02:36:31.928Z,102268.11
2019-03-22T02:39:19.963Z,102264.61
2019-03-22T02:42:07.390Z,102258.06
2019-03-22T02:44:55.024Z,102260.23
2019-03-22T02:47:42.691Z,102270.31
2019-03-22T02:50:29.360Z,102265.95
2019-03-22T02:53:17.372Z,102266.39
2019-03-22T02:56:04.411Z,102272.52
2019-03-22T02:59:05.221Z,102268.16
2019-03-22T03:01:52.584Z,102270.34
2019-03-22T03:04:40.396Z,102265.96
2019-03-22T03:07:27.386Z,102255.92
2019-03-22T03:10:14.451Z,102263.37
2019-03-22T03:13:01.767Z,102258.56
2019-03-22T03:15:49.991Z,102251.56
2019-03-22T03:18:37.135Z,102247.63
2019-03-22T03:21:24.554Z,102256.80
2019-03-22T03:24:11.668Z,102264.23
2019-03-22T03:26:58.784Z,102257.48
2019-03-22T03:29:45.757Z,102262.91
2019-03-22T03:32:33.557Z,102269.05
2019-03-22T03:35:21.247Z,102269.07
2019-03-22T03:44:21.750Z,102272.12
2019-03-22T03:47:10.684Z,102266.01
2019-03-22T03:53:06.968Z,102254.65
2019-03-22T03:55:54.091Z,102259.01
2019-03-22T04:04:55.285Z,102259.47
2019-03-22T04:07:42.412Z,102262.06
2019-03-22T04:10:30.349Z,102255.02
2019-03-22T04:13:17.275Z,102255.55
2019-03-22T04:16:04.063Z,102257.73
2019-03-22T04:18:51.411Z,102257.72
2019-03-22T04:21:38.595Z,102261.66
2019-03-22T04:24:25.931Z,102270.80
2019-03-22T04:27:16.761Z,102276.48
2019-03-22T04:30:03.866Z,102281.73
2019-03-22T04:32:51.176Z,102276.49
2019-03-22T04:35:38.881Z,102279.11
2019-03-22T04:41:32.888Z,102284.81
2019-03-22T04:44:20.911Z,102274.32
2019-03-22T04:50:13.843Z,102284.34
2019-03-22T04:53:00.596Z,102290.00
2019-03-22T04:55:47.388Z,102294.34
2019-03-22T04:58:34.635Z,102296.97
2019-03-22T05:01:22.446Z,102297.81
2019-03-22T05:04:23.808Z,102294.72
2019-03-22T05:07:10.742Z,102297.74
2019-03-22T05:09:57.732Z,102299.05
2019-03-22T05:12:45.867Z,102298.17
2019-03-22T05:15:33.356Z,102302.06
2019-03-22T05:18:27.285Z,102303.38
2019-03-22T05:21:14.383Z,102303.14
2019-03-22T05:24:01.204Z,102302.17
2019-03-22T05:26:48.109Z,102308.69
2019-03-22T05:29:35.046Z,102313.05
2019-03-22T05:32:24.898Z,102316.98
2019-03-22T05:35:12.411Z,102320.94
2019-03-22T05:37:59.318Z,102321.81
2019-03-22T05:40:46.661Z,102317.45
2019-03-22T05:43:33.992Z,102310.06
2019-03-22T05:46:21.690Z,102318.34
2019-03-22T05:49:09.339Z,102322.75
2019-03-22T05:51:56.688Z,102321.43
2019-03-22T05:54:43.986Z,102319.27
2019-03-22T05:57:30.687Z,102330.19
2019-03-22T06:00:17.923Z,102332.83
2019-03-22T06:03:05.927Z,102339.84
2019-03-22T06:05:54.286Z,102338.54
2019-03-22T06:08:48.729Z,102337.22
2019-03-22T06:17:52.182Z,102333.75
2019-03-22T06:20:45.119Z,102329.83
2019-03-22T06:23:32.412Z,102326.30
2019-03-22T06:26:19.692Z,102332.87
2019-03-22T06:29:06.985Z,102332.39
2019-03-22T06:31:54.322Z,102328.56
2019-03-22T07:02:43.673Z,102374.69
2019-03-22T07:30:34.142Z,102373.02
2019-03-22T07:36:28.714Z,102364.49
2019-03-22T08:04:10.278Z,102359.98
2019-03-22T08:10:18.119Z,102365.91
2019-03-22T08:13:12.270Z,102374.86
2019-03-22T08:15:58.975Z,102367.55
2019-03-22T08:18:45.862Z,102363.92
2019-03-22T08:21:33.288Z,102360.22
2019-03-22T08:24:27.707Z,102353.16
2019-03-22T08:27:14.482Z,102361.05
2019-03-22T08:30:01.332Z,102370.59
2019-03-22T08:32:50.427Z,102375.27
2019-03-22T08:35:35.406Z,102367.15
2019-03-22T08:38:23.341Z,102371.23
2019-03-22T08:41:10.458Z,102364.67
2019-03-22T08:43:58.450Z,102355.20
2019-03-22T08:46:45.755Z,102356.50
2019-03-22T08:49:32.747Z,102351.42
2019-03-22T08:58:31.940Z,102360.09
2019-03-22T09:01:18.913Z,102354.20
2019-03-22T09:04:05.847Z,102355.72
2019-03-22T09:10:13.336Z,102361.50
2019-03-22T09:13:00.443Z,102355.95
2019-03-22T09:15:47.930Z,102357.44
2019-03-22T09:24:46.813Z,102347.33
2019-03-22T09:27:36.461Z,102340.69
2019-03-22T09:30:20.780Z,102336.45
2019-03-22T09:33:07.916Z,102335.52
2019-03-22T09:36:09.080Z,102330.44
2019-03-22T09:42:03.394Z,102325.70
2019-03-22T09:44:50.466Z,102321.80
2019-03-22T09:47:38.563Z,102329.98
2019-03-22T09:50:26.705Z,102320.25
2019-03-22T09:53:13.927Z,102323.50
2019-03-22T09:56:01.482Z,102323.24
2019-03-22T09:58:48.859Z,102321.25
2019-03-22T10:01:36.097Z,102323.44
2019-03-22T10:04:23.730Z,102319.66
2019-03-22T10:07:11.583Z,102320.08
2019-03-22T10:09:58.890Z,102318.03
2019-03-22T10:12:48.576Z,102307.02
2019-03-22T10:15:34.884Z,102305.09
2019-03-22T10:21:31.730Z,102300.85
2019-03-22T10:24:19.540Z,102291.42
2019-03-22T10:27:07.603Z,102291.92
2019-03-22T10:29:54.790Z,102285.46
2019-03-22T10:32:49.288Z,102285.16
2019-03-22T10:35:36.333Z,102277.00
2019-03-22T10:38:30.884Z,102280.27
2019-03-22T10:41:11.681Z,102276.54
2019-03-22T10:43:58.847Z,102274.24
2019-03-22T10:46:46.538Z,102271.75
2019-03-22T10:49:33.606Z,102270.52
2019-03-22T10:52:21.137Z,102274.34
2019-03-22T10:55:28.556Z,102267.97
2019-03-22T10:58:02.968Z,102264.56
2019-03-22T11:00:57.278Z,102257.79
2019-03-22T11:03:45.214Z,102258.77
2019-03-22T11:06:32.195Z,102260.97
2019-03-22T11:12:25.469Z,102241.98
2019-03-22T11:15:12.607Z,102233.92
2019-03-22T11:18:01.030Z,102243.37
2019-03-22T11:20:48.452Z,102232.69
2019-03-22T11:23:36.390Z,102240.81
2019-03-22T11:26:23.611Z,102238.65
2019-03-22T11:29:10.513Z,102231.81
2019-03-22T11:31:58.263Z,102222.97
2019-03-22T11:34:44.995Z,102220.64
2019-03-22T11:40:38.070Z,102218.20
2019-03-22T11:43:25.675Z,102218.36
2019-03-22T11:46:11.648Z,102208.06
2019-03-22T11:49:01.645Z,102208.36
2019-03-22T11:51:49.344Z,102209.09
2019-03-22T11:54:37.692Z,102202.03
2019-03-22T11:57:25.727Z,102193.34
2019-03-22T12:00:15.617Z,102187.47
2019-03-22T12:03:03.258Z,102184.37
2019-03-22T12:05:51.273Z,102186.87
2019-03-22T12:08:38.320Z,102174.45
2019-03-22T12:11:25.916Z,102178.38
2019-03-22T12:14:13.366Z,102175.17
2019-03-22T12:17:07.598Z,102168.41
2019-03-22T12:19:54.740Z,102162.03
2019-03-22T12:22:48.843Z,102154.69
2019-03-22T12:25:36.034Z,102155.88
2019-03-22T12:28:23.761Z,102155.16
2019-03-22T12:31:11.629Z,102152.64
2019-03-22T12:33:58.493Z,102145.12
2019-03-22T12:39:52.820Z,102133.80
2019-03-22T12:42:39.954Z,102125.59
2019-03-22T12:45:27.269Z,102126.14
2019-03-22T12:48:14.287Z,102121.66
2019-03-22T12:51:05.938Z,102110.63
2019-03-22T12:53:52.818Z,102112.89
2019-03-22T12:56:39.637Z,102110.56
2019-03-22T12:59:26.958Z,102104.81
2019-03-22T13:05:20.920Z,102097.41
2019-03-22T13:08:07.646Z,102095.67
2019-03-22T13:10:54.780Z,102099.31
2019-03-22T13:13:41.877Z,102093.85
2019-03-22T13:16:28.823Z,102090.58
2019-03-22T13:19:15.495Z,102086.20
2019-03-22T13:22:03.531Z,102080.83
2019-03-22T13:24:50.554Z,102080.08
2019-03-22T13:30:43.467Z,102068.06
2019-03-22T13:33:31.077Z,102066.79
2019-03-22T13:42:30.389Z,102057.19
2019-03-22T13:45:17.592Z,102049.44
2019-03-22T13:48:04.578Z,102054.20
2019-03-22T13:50:51.639Z,102046.25
2019-03-22T13:56:45.731Z,102037.70
2019-03-22T13:59:32.999Z,102030.05
2019-03-22T14:11:38.700Z,102018.74
2019-03-22T14:14:27.680Z,102010.24
2019-03-22T14:17:13.131Z,102008.67
2019-03-22T14:20:10.458Z,102004.34
2019-03-22T14:22:47.583Z,102005.02
2019-03-22T14:25:42.412Z,102002.38
2019-03-22T14:28:36.282Z,102000.66
2019-03-22T14:31:23.267Z,101989.42
2019-03-22T14:34:10.549Z,101991.54
2019-03-22T14:36:57.664Z,101984.06
2019-03-22T14:39:44.783Z,101987.37
2019-03-22T14:45:51.718Z,101975.87
2019-03-22T14:48:38.907Z,101968.45
2019-03-22T14:51:26.836Z,101967.11
2019-03-22T14:54:14.076Z,101962.02
2019-03-22T14:57:02.404Z,101949.78
2019-03-22T15:00:00.285Z,101946.00
2019-03-22T15:02:47.696Z,101944.45
2019-03-22T15:05:34.501Z,101940.69
2019-03-22T15:08:22.723Z,101933.05
2019-03-22T15:11:09.578Z,101927.41
2019-03-22T15:13:59.558Z,101924.87
2019-03-22T15:23:39.464Z,101916.88
2019-03-22T15:26:26.731Z,101908.48
2019-03-22T15:29:17.201Z,101902.78
2019-03-22T15:32:22.936Z,101903.22
2019-03-22T15:35:13.772Z,101899.86
2019-03-22T15:57:19.109Z,101880.63
2019-03-22T16:31:28.319Z,101872.73
2019-03-22T16:34:15.524Z,101870.87
2019-03-22T16:37:02.331Z,101867.63
2019-03-22T16:39:54.769Z,101864.56
2019-03-22T16:42:41.588Z,101863.55
2019-03-22T16:45:38.834Z,101871.11
2019-03-22T16:48:25.427Z,101866.53
2019-03-22T16:51:12.115Z,101870.80
2019-03-22T16:53:58.925Z,101875.42
2019-03-22T16:56:46.062Z,101872.81
2019-03-22T16:59:32.894Z,101872.88
2019-03-22T17:02:20.194Z,101870.25
2019-03-22T17:05:07.831Z,101873.86
2019-03-22T17:07:54.854Z,101871.87
2019-03-22T17:10:41.682Z,101871.03
2019-03-22T17:13:28.769Z,101870.13
2019-03-22T17:16:16.110Z,101866.12
2019-03-22T17:25:17.759Z,101872.45
2019-03-22T17:28:04.688Z,101871.05
2019-03-22T17:30:51.789Z,101866.48
2019-03-22T17:33:39.035Z,101867.70
2019-03-22T17:36:26.225Z,101869.27
2019-03-22T17:39:13.177Z,101867.69
2019-03-22T17:41:59.913Z,101870.59
2019-03-22T17:44:47.672Z,101867.09
2019-03-22T17:53:47.803Z,101874.09
2019-03-22T17:56:34.897Z,101874.63
2019-03-22T17:59:22.680Z,101877.77
2019-03-22T18:02:09.593Z,101873.74
2019-03-22T18:04:56.331Z,101874.30
2019-03-22T18:10:49.291Z,101876.84
2019-03-22T18:13:36.745Z,101876.94
2019-03-22T18:22:36.575Z,101873.74
2019-03-22T18:25:23.439Z,101878.65
2019-03-22T18:28:10.366Z,101880.69
2019-03-22T18:30:57.570Z,101878.00
2019-03-22T18:33:52.233Z,101879.70
2019-03-22T18:36:40.169Z,101877.00
2019-03-22T18:39:27.101Z,101878.52
2019-03-22T18:45:21.597Z,101878.05
2019-03-22T18:48:08.589Z,101878.44
2019-03-22T18:50:56.944Z,101880.13
2019-03-22T18:53:43.055Z,101882.03
2019-03-22T18:56:30.049Z,101886.18
2019-03-22T18:59:18.391Z,101882.58
2019-03-22T19:02:05.144Z,101881.13
2019-03-22T19:04:52.537Z,101889.60
2019-03-22T19:07:40.667Z,101890.17
2019-03-22T19:13:34.039Z,101881.50
2019-03-22T19:16:21.585Z,101876.88
2019-03-22T19:19:08.348Z,101872.33
2019-03-22T19:21:55.734Z,101873.06
2019-03-22T19:24:42.726Z,101870.02
2019-03-22T19:27:29.730Z,101867.25
2019-03-22T19:30:16.944Z,101860.55
2019-03-22T19:33:03.811Z,101849.87
2019-03-22T19:35:51.384Z,101849.67
2019-03-22T19:38:38.718Z,101850.59
2019-03-22T19:41:33.328Z,101845.70
2019-03-22T19:44:20.637Z,101844.78
2019-03-22T19:47:07.673Z,101831.52
2019-03-22T19:49:55.486Z,101836.28
2019-03-22T19:52:43.609Z,101844.05
2019-03-22T19:55:30.743Z,101842.07
2019-03-22T19:58:18.270Z,101837.88
2019-03-22T20:01:05.385Z,101836.36
2019-03-22T20:03:53.530Z,101837.37
2019-03-22T20:06:41.239Z,101840.64
2019-03-22T20:09:28.250Z,101839.89
2019-03-22T20:12:15.502Z,101841.30
2019-03-22T20:15:03.715Z,101839.75
2019-03-22T20:17:50.544Z,101833.83
2019-03-22T20:20:38.569Z,101842.77
2019-03-22T20:23:27.134Z,101841.39
2019-03-22T20:26:14.485Z,101837.68
2019-03-22T20:29:01.905Z,101836.64
2019-03-22T20:31:49.816Z,101838.72
2019-03-22T20:34:39.446Z,101830.22
2019-03-22T20:37:24.441Z,101822.56
2019-03-22T20:40:14.463Z,101822.75
2019-03-22T20:43:01.657Z,101816.36
2019-03-22T20:45:49.783Z,101809.50
2019-03-22T20:51:44.091Z,101812.05
2019-03-22T20:54:31.242Z,101812.61
2019-03-22T21:00:39.353Z,101812.94
2019-03-22T21:03:26.473Z,101814.86
2019-03-22T21:06:13.366Z,101811.45
2019-03-22T21:09:01.705Z,101812.22
2019-03-22T21:11:49.035Z,101806.86
2019-03-22T21:14:37.038Z,101803.63
2019-03-22T21:17:38.822Z,101803.55
2019-03-22T21:23:36.672Z,101794.59
2019-03-22T21:32:32.405Z,101791.44
2019-03-22T21:35:37.539Z,101789.37
2019-03-22T21:38:21.910Z,101797.55
2019-03-22T21:41:08.929Z,101788.04
2019-03-22T21:43:55.844Z,101797.13
2019-03-22T21:46:42.760Z,101791.66
2019-03-22T21:49:44.321Z,101794.14
2019-03-22T21:55:37.594Z,101794.20
2019-03-22T21:58:25.389Z,101789.95
2019-03-22T22:01:12.414Z,101783.06
2019-03-22T22:04:00.763Z,101784.06
2019-03-22T22:06:55.023Z,101781.57
2019-03-22T22:09:42.854Z,101780.80
2019-03-22T22:12:30.315Z,101789.73
2019-03-22T22:15:17.068Z,101784.97
2019-03-22T22:18:04.409Z,101775.89
2019-03-22T22:20:51.529Z,101771.63
2019-03-22T22:26:51.483Z,101783.94
2019-03-22T22:29:38.156Z,101784.55
2019-03-22T22:32:25.374Z,101771.05
2019-03-22T22:35:12.219Z,101769.40
2019-03-22T22:38:00.228Z,101768.67
2019-03-22T22:40:47.136Z,101759.98
2019-03-22T22:43:34.289Z,101764.13
2019-03-22T22:46:35.616Z,101756.77
2019-03-22T22:49:22.842Z,101754.31
2019-03-22T22:52:17.047Z,101749.11
2019-03-22T22:55:04.545Z,101745.27
2019-03-22T22:57:58.615Z,101743.57
2019-03-22T23:00:46.043Z,101741.88
2019-03-22T23:03:33.875Z,101740.61
2019-03-22T23:06:22.123Z,101738.84
2019-03-22T23:09:09.454Z,101736.23
2019-03-22T23:11:58.078Z,101732.78
2019-03-22T23:14:45.393Z,101737.25
2019-03-22T23:17:32.589Z,101727.65
2019-03-22T23:20:21.750Z,101721.01
2019-03-22T23:23:08.995Z,101725.91
2019-03-22T23:29:01.559Z,101721.27
2019-03-22T23:31:49.328Z,101725.81
2019-03-22T23:34:58.696Z,101725.92
2019-03-22T23:37:37.728Z,101730.04
2019-03-22T23:40:25.274Z,101725.37
2019-03-22T23:43:12.389Z,101712.73
2019-03-22T23:45:59.818Z,101713.34
2019-03-22T23:48:46.729Z,101708.21
2019-03-22T23:51:33.620Z,101704.39
2019-03-22T23:54:21.192Z,101704.96
2019-03-22T23:57:08.085Z,101705.95
2019-03-22T23:59:56.202Z,101706.55
